This is the latest recevied weather packets stored in our database for station/object WX7FGZ-7. If no packets are shown the sender has not sent any weather packets the latest 10 day(s).
| Time | Temp. | Humidity | Pressure | Rain* | Wind** | Luminosity | Snow |
|---|---|---|---|---|---|---|---|
| 1778080733 | 16.11° C | 35% | 1017.2 hPa | 0 mm | - | - | - |
| 1778080199 | 16.11° C | 35% | 1017.2 hPa | 0 mm | - | - | - |
| 1778080022 | 16.11° C | 35% | 1017.2 hPa | 0 mm | - | - | - |
| 1778079878 | 15.56° C | 36% | 1017.1 hPa | 0 mm | - | - | - |
| 1778079722 | 15.56° C | 36% | 1017.1 hPa | 0 mm | - | - | - |
| 1778079423 | 15.56° C | 36% | 1017 hPa | 0 mm | - | - | - |
| 1778078822 | 15° C | 37% | 1017.1 hPa | 0 mm | - | - | - |
| 1778078524 | 15° C | 38% | 1017 hPa | 0 mm | - | - | - |
| 1778078049 | 14.44° C | 39% | 1017.2 hPa | 0 mm | - | - | - |
| 1778077922 | 14.44° C | 39% | 1017.2 hPa | 0 mm | - | - | - |
| 1778077784 | 13.89° C | 38% | 1017.1 hPa | 0 mm | - | - | - |
| 1778077631 | 13.89° C | 38% | 1017.1 hPa | 0 mm | - | - | - |
| 1778077161 | 13.33° C | 40% | 1017.1 hPa | 0 mm | - | - | - |
| 1778077034 | 13.33° C | 40% | 1017.1 hPa | 0 mm | - | - | - |
| 1778076871 | 13.33° C | 41% | 1017.1 hPa | 0 mm | - | - | - |
| 1778076722 | 13.33° C | 41% | 1017.1 hPa | 0 mm | - | - | - |
| 1778076567 | 12.78° C | 40% | 1016.9 hPa | 0 mm | - | - | - |
| 1778076422 | 12.78° C | 40% | 1016.9 hPa | 0 mm | - | - | - |
| 1778076123 | 12.22° C | 40% | 1016.8 hPa | 0 mm | - | - | - |
| 1778075906 | 12.22° C | 43% | 1016.9 hPa | 0 mm | - | - | - |
| 1778075828 | 12.22° C | 43% | 1016.9 hPa | 0 mm | - | - | - |
| 1778074623 | 8.89° C | 50% | 1016.6 hPa | 0 mm | - | - | - |
| 1778074023 | 7.78° C | 55% | 1016.5 hPa | 0 mm | - | - | - |
| 1778073515 | 6.67° C | 57% | 1016.4 hPa | 0 mm | - | - | - |
| 1778073422 | 6.67° C | 57% | 1016.4 hPa | 0 mm | - | - | - |
* Rain latest hour (hover to see other rain measurements)
** Current wind speed in m/s (hover to see current wind gust speed)